createdAt,value
2023-04-15T00:00:11.844Z,8.60
2023-04-15T00:01:10.895Z,8.42
2023-04-15T00:02:10.931Z,8.45
2023-04-15T00:03:10.985Z,8.40
2023-04-15T00:04:11.927Z,8.47
2023-04-15T00:05:10.838Z,8.40
2023-04-15T00:06:10.898Z,8.46
2023-04-15T00:07:10.802Z,8.50
2023-04-15T00:08:10.815Z,8.52
2023-04-15T00:09:11.379Z,8.40
2023-04-15T00:10:10.798Z,8.47
2023-04-15T00:11:10.826Z,8.52
2023-04-15T00:12:10.761Z,8.60
2023-04-15T00:13:12.287Z,8.58
2023-04-15T00:14:10.718Z,8.57
2023-04-15T00:15:10.734Z,8.65
2023-04-15T00:16:10.781Z,8.61
2023-04-15T00:17:10.691Z,8.65
2023-04-15T00:18:10.714Z,8.65
2023-04-15T00:19:10.682Z,8.75
2023-04-15T00:20:10.678Z,8.73
2023-04-15T00:21:10.666Z,8.80
2023-04-15T00:22:10.656Z,8.75
2023-04-15T00:23:10.625Z,8.71
2023-04-15T00:24:10.666Z,8.76
2023-04-15T00:25:10.611Z,8.76
2023-04-15T00:26:10.590Z,8.79
2023-04-15T00:27:10.615Z,8.73
2023-04-15T00:28:10.570Z,8.71
2023-04-15T00:29:10.539Z,8.68
2023-04-15T00:30:10.582Z,8.73
2023-04-15T00:31:10.588Z,8.68
2023-04-15T00:32:10.527Z,8.55
2023-04-15T00:33:10.527Z,8.63
2023-04-15T00:34:10.519Z,8.71
2023-04-15T00:35:10.525Z,8.54
2023-04-15T00:36:10.533Z,8.54
2023-04-15T00:37:10.450Z,8.32
2023-04-15T00:38:10.478Z,8.27
2023-04-15T00:39:10.510Z,8.29
2023-04-15T00:40:10.441Z,8.28
2023-04-15T00:41:10.430Z,8.34
2023-04-15T00:42:10.433Z,8.39
2023-04-15T00:43:11.380Z,8.43
2023-04-15T00:44:10.409Z,8.54
2023-04-15T00:45:10.376Z,8.49
2023-04-15T00:46:10.427Z,8.45
2023-04-15T00:47:10.357Z,8.40
2023-04-15T00:48:10.397Z,8.46
2023-04-15T00:49:10.414Z,8.42
2023-04-15T00:50:10.358Z,8.46
2023-04-15T00:51:10.338Z,8.50
2023-04-15T00:52:10.293Z,8.40
2023-04-15T00:53:10.339Z,8.47
2023-04-15T00:54:10.333Z,8.49
2023-04-15T00:55:10.297Z,8.52
2023-04-15T00:56:10.314Z,8.43
2023-04-15T00:57:10.254Z,8.49
2023-04-15T00:58:10.246Z,8.45
2023-04-15T00:59:10.274Z,8.39
2023-04-15T01:00:10.248Z,8.31
2023-04-15T01:01:10.260Z,8.37
2023-04-15T01:02:10.455Z,8.31
2023-04-15T01:03:10.330Z,8.31
2023-04-15T01:04:10.826Z,8.27
2023-04-15T01:05:10.190Z,8.31
2023-04-15T01:06:11.308Z,8.22
2023-04-15T01:07:10.129Z,8.14
2023-04-15T01:08:10.138Z,8.17
2023-04-15T01:09:10.105Z,7.89
2023-04-15T01:10:10.142Z,7.81
2023-04-15T01:11:10.830Z,7.94
2023-04-15T01:12:10.099Z,7.95
2023-04-15T01:13:10.094Z,8.04
2023-04-15T01:14:10.085Z,8.09
2023-04-15T01:15:10.049Z,8.09
2023-04-15T01:16:10.122Z,8.07
2023-04-15T01:17:10.050Z,7.95
2023-04-15T01:18:10.029Z,7.99
2023-04-15T01:19:10.008Z,8.03
2023-04-15T01:20:10.055Z,8.13
2023-04-15T01:21:09.995Z,8.10
2023-04-15T01:22:09.976Z,8.21
2023-04-15T01:23:09.983Z,8.14
2023-04-15T01:24:09.970Z,8.24
2023-04-15T01:25:09.973Z,8.17
2023-04-15T01:26:09.925Z,8.07
2023-04-15T01:27:09.910Z,8.06
2023-04-15T01:28:09.910Z,7.95
2023-04-15T01:29:09.889Z,7.89
2023-04-15T01:30:09.896Z,7.74
2023-04-15T01:31:09.895Z,7.70
2023-04-15T01:32:10.767Z,7.55
2023-04-15T01:33:09.842Z,7.55
2023-04-15T01:34:09.826Z,7.54
2023-04-15T01:35:09.838Z,7.58
2023-04-15T01:36:09.822Z,7.50
2023-04-15T01:37:09.885Z,7.54
2023-04-15T01:38:09.840Z,7.48
2023-04-15T01:39:09.787Z,7.21
2023-04-15T01:40:09.765Z,7.09
2023-04-15T01:41:09.746Z,7.24
2023-04-15T01:42:09.741Z,7.30
2023-04-15T01:43:09.745Z,7.26
2023-04-15T01:44:09.694Z,7.37
2023-04-15T01:45:09.706Z,7.34
2023-04-15T01:46:09.725Z,7.37
2023-04-15T01:47:09.694Z,7.54
2023-04-15T01:48:09.696Z,7.57
2023-04-15T01:49:09.675Z,7.67
2023-04-15T01:50:09.651Z,7.79
2023-04-15T01:51:09.667Z,7.76
2023-04-15T01:52:09.587Z,7.79
2023-04-15T01:53:09.606Z,7.77
2023-04-15T01:54:09.628Z,7.69
2023-04-15T01:55:09.578Z,7.55
2023-04-15T01:56:09.608Z,7.50
2023-04-15T01:57:09.576Z,7.57
2023-04-15T01:58:09.578Z,7.47
2023-04-15T01:59:10.201Z,7.47
2023-04-15T02:00:09.533Z,7.51
2023-04-15T02:01:09.556Z,7.58
2023-04-15T02:02:09.659Z,7.55
2023-04-15T02:03:09.541Z,7.48
2023-04-15T02:04:09.546Z,7.47
2023-04-15T02:05:09.513Z,7.34
2023-04-15T02:06:09.459Z,7.48
2023-04-15T02:07:09.492Z,7.50
2023-04-15T02:08:10.394Z,7.50
2023-04-15T02:09:09.561Z,7.41
2023-04-15T02:10:09.435Z,7.50
2023-04-15T02:11:09.446Z,7.42
2023-04-15T02:12:09.407Z,7.44
2023-04-15T02:13:09.383Z,7.41
2023-04-15T02:14:09.446Z,7.47
2023-04-15T02:15:09.383Z,7.52
2023-04-15T02:16:09.411Z,7.51
2023-04-15T02:17:09.336Z,7.44
2023-04-15T02:18:09.362Z,7.30
2023-04-15T02:19:09.537Z,7.16
2023-04-15T02:20:09.356Z,6.91
2023-04-15T02:21:09.303Z,6.86
2023-04-15T02:22:09.334Z,6.71
2023-04-15T02:23:09.338Z,6.78
2023-04-15T02:24:09.312Z,6.87
2023-04-15T02:25:09.276Z,6.86
2023-04-15T02:26:09.260Z,6.94
2023-04-15T02:27:09.288Z,7.14
2023-04-15T02:28:09.236Z,7.14
2023-04-15T02:29:09.200Z,7.26
2023-04-15T02:30:09.267Z,7.27
2023-04-15T02:31:09.254Z,7.29
2023-04-15T02:32:09.266Z,7.23
2023-04-15T02:33:09.157Z,7.27
2023-04-15T02:34:09.138Z,7.26
2023-04-15T02:35:09.204Z,7.19
2023-04-15T02:36:09.166Z,7.18
2023-04-15T02:37:09.157Z,7.11
2023-04-15T02:38:09.125Z,7.15
2023-04-15T02:39:09.107Z,7.07
2023-04-15T02:40:09.112Z,7.12
2023-04-15T02:41:09.080Z,7.14
2023-04-15T02:42:42.772Z,7.12
2023-04-15T02:43:09.075Z,7.12
2023-04-15T02:44:10.906Z,7.16
2023-04-15T02:45:09.015Z,7.26
2023-04-15T02:46:10.092Z,7.21
2023-04-15T02:47:09.054Z,7.19
2023-04-15T02:48:09.012Z,7.18
2023-04-15T02:49:09.025Z,7.09
2023-04-15T02:50:09.545Z,7.16
2023-04-15T02:51:08.969Z,7.23
2023-04-15T02:52:08.986Z,7.19
2023-04-15T02:53:08.942Z,7.21
2023-04-15T02:54:08.950Z,6.97
2023-04-15T02:55:08.905Z,6.93
2023-04-15T02:56:08.914Z,6.81
2023-04-15T02:57:08.916Z,6.73
2023-04-15T02:58:08.947Z,6.53
2023-04-15T02:59:08.879Z,6.57
2023-04-15T03:00:08.859Z,6.68
2023-04-15T03:01:08.870Z,6.76
2023-04-15T03:02:08.911Z,6.76
2023-04-15T03:03:09.084Z,6.78
2023-04-15T03:04:08.958Z,6.71
2023-04-15T03:05:08.824Z,6.61
2023-04-15T03:06:09.786Z,6.50
2023-04-15T03:07:08.783Z,6.39
2023-04-15T03:08:08.804Z,6.55
2023-04-15T03:09:08.795Z,6.54
2023-04-15T03:10:08.793Z,6.54
2023-04-15T03:11:08.754Z,6.63
2023-04-15T03:12:08.737Z,6.64
2023-04-15T03:13:08.713Z,6.71
2023-04-15T03:14:08.696Z,6.75
2023-04-15T03:15:08.739Z,6.69
2023-04-15T03:16:08.679Z,6.82
2023-04-15T03:17:08.678Z,6.82
2023-04-15T03:18:08.666Z,6.83
2023-04-15T03:19:08.722Z,6.93
2023-04-15T03:20:08.713Z,6.94
2023-04-15T03:21:08.637Z,6.93
2023-04-15T03:22:08.614Z,6.87
2023-04-15T03:23:08.570Z,6.71
2023-04-15T03:24:08.580Z,6.58
2023-04-15T03:25:09.593Z,6.54
2023-04-15T03:26:08.585Z,6.53
2023-04-15T03:27:08.563Z,6.48
2023-04-15T03:28:08.575Z,6.50
2023-04-15T03:29:08.522Z,6.54
2023-04-15T03:30:08.519Z,6.60
2023-04-15T03:31:08.566Z,6.58
2023-04-15T03:32:08.585Z,6.50
2023-04-15T03:33:08.491Z,6.51
2023-04-15T03:34:09.392Z,6.51
2023-04-15T03:35:08.498Z,6.50
2023-04-15T03:36:08.459Z,6.65
2023-04-15T03:37:08.438Z,6.63
2023-04-15T03:38:08.419Z,6.69
2023-04-15T03:39:08.429Z,6.64
2023-04-15T03:40:08.387Z,6.65
2023-04-15T03:41:08.366Z,6.43
2023-04-15T03:42:09.496Z,6.53
2023-04-15T03:43:08.352Z,6.53
2023-04-15T03:44:08.376Z,6.43
2023-04-15T03:45:08.333Z,6.48
2023-04-15T03:46:08.391Z,6.48
2023-04-15T03:47:08.331Z,6.61
2023-04-15T03:48:17.123Z,6.60
2023-04-15T03:49:10.302Z,6.58
2023-04-15T03:50:08.321Z,6.51
2023-04-15T03:51:08.294Z,6.27
2023-04-15T03:52:08.302Z,6.27
2023-04-15T03:53:08.311Z,6.16
2023-04-15T03:54:08.247Z,6.35
2023-04-15T03:55:08.268Z,6.24
2023-04-15T03:56:08.227Z,6.33
2023-04-15T03:57:08.234Z,6.42
2023-04-15T03:58:08.878Z,6.48
2023-04-15T03:59:08.231Z,6.45
2023-04-15T04:00:08.204Z,6.46
2023-04-15T04:01:08.179Z,6.32
2023-04-15T04:02:08.213Z,6.35
2023-04-15T04:03:08.526Z,6.13
2023-04-15T04:04:08.204Z,6.19
2023-04-15T04:05:08.139Z,6.39
2023-04-15T04:06:08.095Z,6.35
2023-04-15T04:07:08.118Z,6.53
2023-04-15T04:08:08.099Z,6.42
2023-04-15T04:09:08.082Z,6.46
2023-04-15T04:10:08.100Z,6.54
2023-04-15T04:11:08.199Z,6.53
2023-04-15T04:12:08.161Z,6.55
2023-04-15T04:13:08.691Z,6.61
2023-04-15T04:14:08.079Z,6.51
2023-04-15T04:15:08.016Z,6.54
2023-04-15T04:16:08.180Z,6.64
2023-04-15T04:17:08.114Z,6.60
2023-04-15T04:18:08.000Z,6.63
2023-04-15T04:19:07.979Z,6.65
2023-04-15T04:20:07.934Z,6.71
2023-04-15T04:21:07.985Z,6.69
2023-04-15T04:22:07.922Z,6.76
2023-04-15T04:23:07.921Z,6.72
2023-04-15T04:30:22.365Z,6.76
2023-04-15T04:31:23.656Z,6.73
2023-04-15T04:32:23.542Z,6.73
2023-04-15T04:33:23.595Z,6.89
2023-04-15T04:34:23.536Z,6.78
2023-04-15T04:35:23.515Z,6.64
2023-04-15T04:36:23.474Z,6.57
2023-04-15T04:37:23.594Z,6.61
2023-04-15T04:38:23.404Z,6.68
2023-04-15T04:39:23.449Z,6.81
2023-04-15T04:40:23.460Z,6.86
2023-04-15T04:41:23.380Z,6.93
2023-04-15T04:42:24.162Z,6.86
2023-04-15T04:43:23.295Z,6.79
2023-04-15T04:44:23.409Z,6.76
2023-04-15T04:45:23.349Z,6.75
2023-04-15T04:46:23.525Z,6.63
2023-04-15T04:47:23.300Z,6.68
2023-04-15T04:48:23.370Z,6.69
2023-04-15T04:49:23.365Z,6.81
2023-04-15T04:50:23.348Z,6.78
2023-04-15T04:51:23.253Z,6.96
2023-04-15T04:52:23.277Z,7.04
2023-04-15T04:53:23.249Z,7.15
2023-04-15T04:54:23.257Z,7.16
2023-04-15T04:55:23.241Z,7.21
2023-04-15T04:56:23.340Z,7.29
2023-04-15T04:57:23.305Z,7.27
2023-04-15T04:58:23.159Z,7.32
2023-04-15T04:59:23.150Z,7.21
2023-04-15T05:00:23.193Z,7.33
2023-04-15T05:01:23.285Z,7.29
2023-04-15T05:02:23.184Z,7.41
2023-04-15T05:03:23.270Z,7.41
2023-04-15T05:04:23.086Z,7.39
2023-04-15T05:05:23.736Z,7.37
2023-04-15T05:06:23.147Z,7.42
2023-04-15T05:07:23.168Z,7.34
2023-04-15T05:08:23.171Z,7.36
2023-04-15T05:09:23.143Z,7.41
2023-04-15T05:10:23.009Z,7.54
2023-04-15T05:11:23.110Z,7.51
2023-04-15T05:12:23.007Z,7.54
2023-04-15T05:13:22.991Z,7.55
2023-04-15T05:14:23.463Z,7.48
2023-04-15T05:15:24.230Z,7.51
2023-04-15T05:16:23.090Z,7.54
2023-04-15T05:17:23.033Z,7.66
2023-04-15T05:18:22.954Z,7.51
2023-04-15T05:19:23.063Z,7.60
2023-04-15T05:20:22.931Z,7.62
2023-04-15T05:21:22.953Z,7.55
2023-04-15T05:22:22.902Z,7.63
2023-04-15T05:23:22.942Z,7.67
2023-04-15T05:24:22.894Z,7.76
2023-04-15T05:25:23.068Z,7.79
2023-04-15T05:26:22.858Z,7.76
2023-04-15T05:27:22.837Z,7.86
2023-04-15T05:28:22.889Z,7.81
2023-04-15T05:29:22.795Z,7.89
2023-04-15T05:30:22.820Z,7.88
2023-04-15T05:31:22.784Z,7.94
2023-04-15T05:32:22.884Z,7.91
2023-04-15T05:33:22.805Z,8.00
2023-04-15T05:34:22.783Z,7.91
2023-04-15T05:35:22.894Z,7.94
2023-04-15T05:36:22.736Z,7.94
2023-04-15T05:37:22.737Z,7.95
2023-04-15T05:38:22.728Z,8.07
2023-04-15T05:39:22.744Z,7.95
2023-04-15T05:40:22.738Z,7.99
2023-04-15T05:41:22.840Z,8.09
2023-04-15T05:42:22.703Z,8.18
2023-04-15T05:43:22.639Z,8.13
2023-04-15T05:44:22.656Z,8.07
2023-04-15T05:45:22.755Z,8.17
2023-04-15T05:46:22.629Z,8.04
2023-04-15T05:47:22.652Z,8.14
2023-04-15T05:48:22.595Z,8.07
2023-04-15T05:49:23.203Z,8.07
2023-04-15T05:50:22.573Z,8.12
2023-04-15T05:51:22.676Z,8.09
2023-04-15T05:52:22.540Z,8.14
2023-04-15T05:53:22.532Z,8.14
2023-04-15T05:54:22.520Z,8.17
2023-04-15T05:55:22.543Z,8.18
2023-04-15T05:56:22.739Z,8.18
2023-04-15T05:57:22.480Z,8.21
2023-04-15T05:58:22.637Z,8.24
2023-04-15T05:59:48.961Z,8.18
2023-04-15T06:00:34.457Z,8.13
2023-04-15T06:03:22.051Z,8.21
2023-04-15T06:04:14.440Z,8.21
2023-04-15T06:08:20.773Z,8.20
2023-04-15T06:09:25.977Z,8.12
2023-04-15T06:10:23.032Z,8.18
2023-04-15T06:11:21.740Z,8.27
2023-04-15T06:12:21.776Z,8.20
2023-04-15T06:13:21.814Z,8.10
2023-04-15T06:14:21.449Z,8.17
2023-04-15T06:15:23.104Z,8.27
2023-04-15T06:16:22.077Z,8.25
2023-04-15T06:17:26.328Z,8.21
2023-04-15T06:19:55.216Z,8.25
2023-04-15T06:19:58.640Z,8.32
2023-04-15T06:21:01.455Z,8.27
2023-04-15T06:21:58.264Z,8.28
2023-04-15T06:23:21.218Z,8.39
2023-04-15T06:23:59.526Z,8.25
2023-04-15T06:25:00.255Z,8.45
2023-04-15T06:26:01.410Z,8.34
2023-04-15T06:27:00.520Z,8.32
2023-04-15T06:27:57.670Z,8.24
2023-04-15T06:28:57.585Z,8.24
2023-04-15T06:29:57.439Z,8.22
2023-04-15T06:30:57.434Z,8.24
2023-04-15T06:31:58.179Z,8.29
2023-04-15T06:32:57.547Z,8.22
2023-04-15T06:33:58.411Z,8.36
2023-04-15T06:34:57.426Z,8.45
2023-04-15T06:35:57.463Z,8.31
2023-04-15T06:36:57.272Z,8.42
2023-04-15T06:38:00.563Z,8.47
2023-04-15T06:39:01.063Z,8.46
2023-04-15T06:42:39.266Z,8.46
2023-04-15T06:42:55.445Z,8.40
2023-04-15T06:43:49.516Z,8.39
2023-04-15T06:44:53.563Z,8.32
2023-04-15T06:45:53.255Z,8.39
2023-04-15T06:46:55.396Z,8.42
2023-04-15T06:47:43.862Z,8.27
2023-04-15T06:48:44.006Z,8.18
2023-04-15T06:49:43.570Z,8.17
2023-04-15T06:50:43.797Z,8.20
2023-04-15T06:51:44.441Z,8.20
2023-04-15T06:52:43.794Z,8.24
2023-04-15T06:53:44.266Z,8.09
2023-04-15T06:54:44.384Z,8.18
2023-04-15T06:55:47.199Z,8.14
2023-04-15T06:56:45.177Z,8.18
2023-04-15T06:57:44.204Z,8.10
2023-04-15T06:58:43.698Z,8.20
2023-04-15T06:59:46.652Z,8.21
2023-04-15T07:00:53.717Z,8.22
2023-04-15T07:01:43.259Z,8.21
2023-04-15T08:02:57.951Z,8.76
2023-04-15T08:15:27.210Z,8.88
2023-04-15T08:15:43.255Z,8.88
2023-04-15T08:18:17.628Z,8.82
2023-04-15T08:19:51.113Z,8.86
2023-04-15T08:20:31.178Z,8.94
2023-04-15T08:21:20.245Z,8.93
2023-04-15T08:22:28.754Z,9.01
2023-04-15T08:23:19.408Z,8.91
2023-04-15T08:24:42.705Z,9.01
2023-04-15T08:25:20.765Z,8.97
2023-04-15T08:26:17.641Z,8.89
2023-04-15T08:27:28.591Z,8.98
2023-04-15T08:28:22.195Z,9.08
2023-04-15T08:29:23.994Z,9.08
2023-04-15T08:31:48.991Z,9.03
2023-04-15T08:32:06.671Z,9.10
2023-04-15T08:33:06.564Z,9.06
2023-04-15T08:35:17.678Z,9.17
2023-04-15T08:35:20.598Z,9.04
2023-04-15T08:36:31.992Z,9.00
2023-04-15T08:37:20.078Z,9.01
2023-04-15T08:38:19.716Z,9.01
2023-04-15T08:39:20.228Z,9.10
2023-04-15T08:40:20.599Z,9.16
2023-04-15T08:41:26.268Z,9.13
2023-04-15T08:42:26.436Z,9.16
2023-04-15T08:43:27.140Z,9.12
2023-04-15T08:44:19.651Z,9.15
2023-04-15T08:45:19.618Z,9.12
2023-04-15T08:46:19.412Z,9.06
2023-04-15T08:47:19.363Z,8.96
2023-04-15T08:48:19.353Z,8.98
2023-04-15T08:49:19.376Z,8.89
2023-04-15T08:50:19.524Z,8.89
2023-04-15T08:51:19.405Z,8.91
2023-04-15T08:52:19.438Z,9.04
2023-04-15T08:53:19.396Z,9.01
2023-04-15T08:54:19.328Z,9.01
2023-04-15T08:55:19.414Z,8.94
2023-04-15T08:56:19.383Z,9.12
2023-04-15T08:57:19.241Z,9.15
2023-04-15T09:17:17.964Z,9.30
2023-04-15T09:29:28.291Z,9.04
2023-04-15T09:59:46.285Z,9.15
2023-04-15T09:59:47.980Z,9.04
2023-04-15T10:06:37.724Z,9.01
2023-04-15T10:07:37.788Z,8.98
2023-04-15T10:08:37.831Z,9.04
2023-04-15T10:09:38.371Z,9.04
2023-04-15T10:10:44.387Z,8.98
2023-04-15T10:11:37.847Z,9.03
2023-04-15T10:12:38.383Z,8.96
2023-04-15T10:13:38.124Z,8.93
2023-04-15T10:14:38.895Z,8.88
2023-04-15T10:15:37.738Z,8.93
2023-04-15T10:17:59.692Z,8.83
2023-04-15T10:19:27.015Z,8.83
2023-04-15T10:19:30.884Z,8.80
2023-04-15T10:21:50.988Z,8.71
2023-04-15T10:21:53.460Z,8.71
2023-04-15T10:23:09.418Z,8.73
2023-04-15T10:23:53.476Z,8.82
